Back to Top

Language: 

My Weather Underground Personal Weather Station Historical Data with Graphs...

Delerius Weather Station Historical Data
Daily Summary for March 7, 2017 Units:  English    Metric   Both
« Previous Day
Next Day »
Daily Weekly Monthly Yearly Custom
  High: Low: Average:
Temperature: 51.9 °F 38.1 °F 44.8 °F
Dew Point: 42.1 °F 34.3 °F 37.3 °F
Humidity: 92 % 54 % 76 %
Wind Speed: 14.0 mph 0.0 mph 6.3 mph
Wind Gust: 18.0 mph - -
Wind:- - WSW
Pressure: 30.00 in 29.77 in -
Precipitation: 0.01 in    
Historical Graphs
 
 
Tabular Data for March 7, 2017
Time Temperature Dew Point Pressure Wind Wind Speed Wind Gust Humidity Rainfall Rate (Hourly) solar Conditions
00:00 40.7 °F 37.4 °F 29.88 in WNW 8.0 mph 9.0 mph 88 % 0.00 in 0 W/m2
00:05 40.6 °F 37.3 °F 29.88 in WNW 8.0 mph 10.0 mph 88 % 0.00 in 0 W/m2
00:15 40.4 °F 37.1 °F 29.88 in West 9.0 mph 12.0 mph 88 % 0.00 in 0 W/m2
00:20 40.4 °F 37.1 °F 29.88 in NW 9.0 mph 9.0 mph 88 % 0.00 in 0 W/m2
00:25 40.3 °F 37.0 °F 29.89 in West 9.0 mph 9.0 mph 88 % 0.00 in 0 W/m2
00:35 40.2 °F 36.6 °F 29.89 in West 9.0 mph 9.0 mph 87 % 0.00 in 0 W/m2
00:40 40.1 °F 36.5 °F 29.89 in NW 9.0 mph 9.0 mph 87 % 0.00 in 0 W/m2
00:45 40.1 °F 36.5 °F 29.89 in WNW 9.0 mph 9.0 mph 87 % 0.00 in 0 W/m2
00:55 39.9 °F 36.3 °F 29.89 in West 6.0 mph 10.0 mph 87 % 0.00 in 0 W/m2
01:00 39.9 °F 36.6 °F 29.90 in NW 7.0 mph 7.0 mph 88 % 0.00 in 0 W/m2
01:05 39.9 °F 36.6 °F 29.90 in NW 8.0 mph 12.0 mph 88 % 0.00 in 0 W/m2
01:10 39.9 °F 36.6 °F 29.90 in NNW 8.0 mph 8.0 mph 88 % 0.00 in 0 W/m2
01:15 40.0 °F 36.7 °F 29.90 in WNW 9.0 mph 9.0 mph 88 % 0.00 in 0 W/m2
01:20 40.1 °F 36.8 °F 29.90 in WNW 9.0 mph 9.0 mph 88 % 0.00 in 0 W/m2
01:30 40.2 °F 36.9 °F 29.91 in WNW 7.0 mph 7.0 mph 88 % 0.00 in 0 W/m2
01:35 40.3 °F 37.0 °F 29.91 in WNW 6.0 mph 15.0 mph 88 % 0.00 in 0 W/m2
01:40 40.3 °F 37.0 °F 29.91 in NW 5.0 mph 5.0 mph 88 % 0.00 in 0 W/m2
01:45 40.4 °F 37.1 °F 29.91 in WNW 6.0 mph 6.0 mph 88 % 0.00 in 0 W/m2
01:55 40.5 °F 37.2 °F 29.91 in WNW 6.0 mph 15.0 mph 88 % 0.00 in 0 W/m2
02:00 40.5 °F 37.2 °F 29.91 in NW 5.0 mph 5.0 mph 88 % 0.00 in 0 W/m2
02:05 40.5 °F 37.5 °F 29.91 in NW 5.0 mph 15.0 mph 89 % 0.00 in 0 W/m2
02:15 40.5 °F 37.5 °F 29.90 in NNW 6.0 mph 15.0 mph 89 % 0.00 in 0 W/m2
02:20 40.5 °F 37.5 °F 29.90 in NW 6.0 mph 15.0 mph 89 % 0.00 in 0 W/m2
02:25 40.4 °F 37.4 °F 29.90 in NW 6.0 mph 15.0 mph 89 % 0.00 in 0 W/m2
02:30 40.2 °F 37.2 °F 29.90 in WNW 4.0 mph 15.0 mph 89 % 0.00 in 0 W/m2
02:35 40.1 °F 37.1 °F 29.90 in NW 3.0 mph 15.0 mph 89 % 0.00 in 0 W/m2
02:40 40.2 °F 37.5 °F 29.90 in NW 5.0 mph 5.0 mph 90 % 0.00 in 0 W/m2
02:45 40.3 °F 37.6 °F 29.91 in NW 5.0 mph 15.0 mph 90 % 0.00 in 0 W/m2
02:50 40.4 °F 37.7 °F 29.91 in NW 5.0 mph 15.0 mph 90 % 0.00 in 0 W/m2
02:55 40.5 °F 37.8 °F 29.91 in NW 6.0 mph 15.0 mph 90 % 0.00 in 0 W/m2
03:00 40.5 °F 37.8 °F 29.91 in WNW 8.0 mph 15.0 mph 90 % 0.00 in 0 W/m2
03:10 40.4 °F 37.4 °F 29.91 in WNW 9.0 mph 9.0 mph 89 % 0.00 in 0 W/m2
03:20 40.3 °F 37.3 °F 29.91 in WNW 8.0 mph 15.0 mph 89 % 0.00 in 0 W/m2
03:25 40.3 °F 37.3 °F 29.91 in West 8.0 mph 15.0 mph 89 % 0.00 in 0 W/m2
03:30 40.3 °F 37.3 °F 29.92 in WNW 10.0 mph 10.0 mph 89 % 0.00 in 0 W/m2
03:35 40.3 °F 37.3 °F 29.92 in WNW 10.0 mph 15.0 mph 89 % 0.00 in 0 W/m2
03:45 40.2 °F 37.2 °F 29.92 in West 8.0 mph 11.0 mph 89 % 0.00 in 0 W/m2
03:50 40.2 °F 37.2 °F 29.92 in WNW 9.0 mph 15.0 mph 89 % 0.00 in 0 W/m2
03:55 40.1 °F 37.1 °F 29.93 in WNW 8.0 mph 15.0 mph 89 % 0.00 in 0 W/m2
04:00 40.0 °F 37.0 °F 29.93 in WNW 8.0 mph 15.0 mph 89 % 0.00 in 0 W/m2
04:05 39.9 °F 36.9 °F 29.93 in WNW 7.0 mph 15.0 mph 89 % 0.00 in 0 W/m2
04:15 39.7 °F 36.7 °F 29.93 in WNW 8.0 mph 8.0 mph 89 % 0.00 in 0 W/m2
04:20 39.7 °F 36.7 °F 29.93 in WNW 7.0 mph 15.0 mph 89 % 0.00 in 0 W/m2
04:25 39.6 °F 36.6 °F 29.94 in NW 7.0 mph 15.0 mph 89 % 0.00 in 0 W/m2
04:35 39.6 °F 36.6 °F 29.94 in West 8.0 mph 15.0 mph 89 % 0.00 in 0 W/m2
04:40 39.5 °F 36.5 °F 29.94 in WNW 8.0 mph 15.0 mph 89 % 0.00 in 0 W/m2
04:50 39.6 °F 36.9 °F 29.94 in WNW 8.0 mph 8.0 mph 90 % 0.00 in 0 W/m2
04:55 39.6 °F 36.9 °F 29.94 in WNW 7.0 mph 10.0 mph 90 % 0.00 in 0 W/m2
05:00 39.7 °F 37.0 °F 29.95 in NW 7.0 mph 15.0 mph 90 % 0.00 in 0 W/m2
05:05 39.7 °F 37.0 °F 29.95 in NNW 7.0 mph 15.0 mph 90 % 0.00 in 0 W/m2
05:10 39.7 °F 37.0 °F 29.94 in West 7.0 mph 15.0 mph 90 % 0.00 in 0 W/m2
05:15 39.6 °F 36.9 °F 29.94 in West 7.0 mph 15.0 mph 90 % 0.00 in 0 W/m2
05:25 39.5 °F 36.8 °F 29.94 in West 8.0 mph 15.0 mph 90 % 0.00 in 0 W/m2
05:30 39.4 °F 36.7 °F 29.94 in WNW 8.0 mph 8.0 mph 90 % 0.00 in 0 W/m2
05:35 39.3 °F 36.6 °F 29.94 in WNW 6.0 mph 15.0 mph 90 % 0.00 in 0 W/m2
05:40 39.1 °F 36.4 °F 29.95 in WNW 5.0 mph 5.0 mph 90 % 0.00 in 0 W/m2
05:45 38.9 °F 36.2 °F 29.95 in West 3.0 mph 15.0 mph 90 % 0.00 in 0 W/m2
05:55 38.5 °F 36.1 °F 29.95 in WNW 2.0 mph 5.0 mph 91 % 0.00 in 0 W/m2
06:00 38.4 °F 36.0 °F 29.95 in NW 4.0 mph 15.0 mph 91 % 0.00 in 0 W/m2
06:10 38.3 °F 36.2 °F 29.95 in WNW 7.0 mph 7.0 mph 92 % 0.00 in 0 W/m2
06:15 38.3 °F 36.2 °F 29.95 in NW 7.0 mph 8.0 mph 92 % 0.00 in 0 W/m2
06:20 38.4 °F 36.3 °F 29.95 in NW 7.0 mph 7.0 mph 92 % 0.00 in 0 W/m2
06:30 38.3 °F 35.9 °F 29.95 in WNW 7.0 mph 7.0 mph 91 % 0.00 in 0 W/m2
06:35 38.2 °F 35.8 °F 29.95 in West 7.0 mph 9.0 mph 91 % 0.00 in 0 W/m2
06:40 38.2 °F 35.8 °F 29.95 in NW 8.0 mph 15.0 mph 91 % 0.00 in 5 W/m2
06:45 38.1 °F 35.7 °F 29.95 in WNW 8.0 mph 15.0 mph 91 % 0.00 in 7 W/m2
06:50 38.2 °F 36.1 °F 29.95 in WNW 8.0 mph 15.0 mph 92 % 0.00 in 11 W/m2
06:55 38.2 °F 35.8 °F 29.95 in NW 7.0 mph 15.0 mph 91 % 0.00 in 12 W/m2
07:05 38.4 °F 36.0 °F 29.95 in WNW 6.0 mph 7.0 mph 91 % 0.00 in 39 W/m2
07:10 38.5 °F 36.1 °F 29.95 in WNW 5.0 mph 5.0 mph 91 % 0.00 in 53 W/m2
07:15 38.7 °F 36.3 °F 29.95 in WNW 5.0 mph 15.0 mph 91 % 0.00 in 72 W/m2
07:20 38.9 °F 36.5 °F 29.96 in West 3.0 mph 3.0 mph 91 % 0.00 in 86 W/m2
07:30 39.4 °F 37.0 °F 29.96 in WNW 2.0 mph 2.0 mph 91 % 0.00 in 105 W/m2
07:40 40.6 °F 37.9 °F 29.96 in Calm   15.0 mph 90 % 0.00 in 116 W/m2
07:45 41.3 °F 38.0 °F 29.96 in Calm   15.0 mph 88 % 0.00 in 130 W/m2
07:50 41.6 °F 37.7 °F 29.96 in Calm   15.0 mph 86 % 0.00 in 155 W/m2
07:55 41.7 °F 37.8 °F 29.96 in Calm   15.0 mph 86 % 0.00 in 172 W/m2
08:00 41.8 °F 37.6 °F 29.97 in WNW 1.0 mph 1.0 mph 85 % 0.00 in 179 W/m2
08:10 41.7 °F 37.2 °F 29.97 in West 3.0 mph 15.0 mph 84 % 0.00 in 142 W/m2
08:15 41.8 °F 37.3 °F 29.97 in West 4.0 mph 15.0 mph 84 % 0.00 in 223 W/m2
08:20 42.0 °F 37.5 °F 29.97 in WSW 4.0 mph 15.0 mph 84 % 0.00 in 207 W/m2
08:25 42.2 °F 37.7 °F 29.97 in West 6.0 mph 15.0 mph 84 % 0.00 in 239 W/m2
08:30 42.4 °F 37.9 °F 29.97 in NW 7.0 mph 7.0 mph 84 % 0.00 in 251 W/m2
08:35 42.6 °F 37.8 °F 29.97 in West 8.0 mph 8.0 mph 83 % 0.00 in 265 W/m2
08:40 42.9 °F 38.1 °F 29.97 in West 8.0 mph 8.0 mph 83 % 0.00 in 274 W/m2
08:45 43.0 °F 38.2 °F 29.97 in West 8.0 mph 15.0 mph 83 % 0.00 in 285 W/m2
08:50 43.2 °F 38.4 °F 29.97 in WSW 8.0 mph 15.0 mph 83 % 0.00 in 299 W/m2
09:00 43.6 °F 38.5 °F 29.96 in West 8.0 mph 15.0 mph 82 % 0.00 in 330 W/m2
09:05 44.1 °F 38.6 °F 29.96 in West 9.0 mph 15.0 mph 81 % 0.00 in 352 W/m2
09:10 44.4 °F 38.6 °F 29.96 in West 10.0 mph 10.0 mph 80 % 0.00 in 380 W/m2
09:20 44.6 °F 38.5 °F 29.97 in West 9.0 mph 9.0 mph 79 % 0.00 in 241 W/m2
09:25 44.5 °F 38.4 °F 29.97 in SW 9.0 mph 15.0 mph 79 % 0.00 in 250 W/m2
09:35 43.9 °F 37.8 °F 29.97 in WNW 7.0 mph 15.0 mph 79 % 0.00 in 127 W/m2
09:40 43.6 °F 37.5 °F 29.97 in West 7.0 mph 15.0 mph 79 % 0.00 in 274 W/m2
09:50 44.2 °F 38.4 °F 29.97 in West 7.0 mph 7.0 mph 80 % 0.00 in 362 W/m2
10:00 45.1 °F 39.0 °F 29.98 in West 6.0 mph 15.0 mph 79 % 0.00 in 388 W/m2
10:10 46.0 °F 38.9 °F 29.99 in WNW 8.0 mph 15.0 mph 76 % 0.00 in 404 W/m2
10:15 46.2 °F 39.1 °F 29.99 in WNW 9.0 mph 15.0 mph 76 % 0.00 in 471 W/m2
10:20 46.6 °F 39.4 °F 29.99 in WNW 8.0 mph 15.0 mph 76 % 0.00 in 497 W/m2
10:25 46.9 °F 39.4 °F 30.00 in West 8.0 mph 15.0 mph 75 % 0.00 in 352 W/m2
10:30 47.0 °F 39.1 °F 30.00 in WNW 8.0 mph 15.0 mph 74 % 0.00 in 253 W/m2
10:40 46.6 °F 38.1 °F 30.00 in WNW 9.0 mph 9.0 mph 72 % 0.00 in 297 W/m2
10:45 46.6 °F 38.4 °F 29.99 in WNW 8.0 mph 15.0 mph 73 % 0.00 in 492 W/m2
10:50 46.9 °F 38.7 °F 29.99 in WNW 8.0 mph 8.0 mph 73 % 0.00 in 478 W/m2
10:55 47.3 °F 38.7 °F 29.99 in WNW 8.0 mph 11.0 mph 72 % 0.00 in 487 W/m2
11:00 47.3 °F 38.7 °F 29.99 in WSW 9.0 mph 15.0 mph 72 % 0.00 in 475 W/m2
11:10 47.4 °F 38.1 °F 29.99 in West 10.0 mph 10.0 mph 70 % 0.00 in 338 W/m2
11:15 47.4 °F 38.1 °F 29.99 in WNW 10.0 mph 15.0 mph 70 % 0.00 in 334 W/m2
11:20 47.3 °F 37.6 °F 30.00 in West 8.0 mph 15.0 mph 69 % 0.00 in 262 W/m2
11:25 47.4 °F 38.1 °F 30.00 in WNW 8.0 mph 15.0 mph 70 % 0.00 in 459 W/m2
11:30 47.6 °F 37.9 °F 29.99 in WNW 9.0 mph 15.0 mph 69 % 0.00 in 276 W/m2
11:35 47.8 °F 38.1 °F 29.99 in WNW 7.0 mph 15.0 mph 69 % 0.00 in 526 W/m2
11:40 48.2 °F 38.1 °F 29.99 in West 5.0 mph 15.0 mph 68 % 0.00 in 248 W/m2
11:50 48.3 °F 38.2 °F 29.99 in WNW 6.0 mph 6.0 mph 68 % 0.00 in 313 W/m2
11:55 48.5 °F 38.0 °F 29.98 in West 5.0 mph 8.0 mph 67 % 0.00 in 462 W/m2
12:00 48.6 °F 37.4 °F 29.99 in NW 5.0 mph 15.0 mph 65 % 0.00 in 480 W/m2
12:05 48.8 °F 37.9 °F 29.99 in West 6.0 mph 15.0 mph 66 % 0.00 in 538 W/m2
12:15 49.3 °F 38.0 °F 29.99 in NW 6.0 mph 15.0 mph 65 % 0.00 in 555 W/m2
12:20 49.7 °F 38.4 °F 29.99 in WSW 4.0 mph 15.0 mph 65 % 0.00 in 485 W/m2
12:30 49.0 °F 38.5 °F 29.99 in SW 6.0 mph 6.0 mph 67 % 0.00 in 432 W/m2
12:35 49.1 °F 38.6 °F 29.99 in WSW 5.0 mph 15.0 mph 67 % 0.00 in 522 W/m2
12:40 49.2 °F 38.7 °F 30.00 in WSW 5.0 mph 15.0 mph 67 % 0.00 in 635 W/m2
12:45 49.5 °F 39.0 °F 30.00 in WSW 6.0 mph 15.0 mph 67 % 0.00 in 596 W/m2
12:55 50.0 °F 38.7 °F 29.99 in West 7.0 mph 15.0 mph 65 % 0.00 in 629 W/m2
13:00 50.4 °F 39.1 °F 29.99 in WSW 7.0 mph 15.0 mph 65 % 0.00 in 446 W/m2
13:05 50.2 °F 38.1 °F 29.99 in West 7.0 mph 15.0 mph 63 % 0.00 in 424 W/m2
13:10 50.4 °F 38.3 °F 29.98 in WSW 6.0 mph 6.0 mph 63 % 0.00 in 457 W/m2
13:15 50.5 °F 38.0 °F 29.98 in WNW 5.0 mph 8.0 mph 62 % 0.00 in 369 W/m2
13:20 50.9 °F 37.9 °F 29.99 in WNW 6.0 mph 6.0 mph 61 % 0.00 in 350 W/m2
13:30 51.2 °F 37.8 °F 29.98 in West 4.0 mph 15.0 mph 60 % 0.00 in 457 W/m2
13:35 51.3 °F 37.4 °F 29.98 in West 5.0 mph 15.0 mph 59 % 0.00 in 332 W/m2
13:40 51.3 °F 38.3 °F 29.98 in West 6.0 mph 15.0 mph 61 % 0.00 in 536 W/m2
13:45 51.6 °F 38.6 °F 29.98 in NW 5.0 mph 15.0 mph 61 % 0.00 in 670 W/m2
13:55 51.9 °F 37.6 °F 29.97 in West 4.0 mph 15.0 mph 58 % 0.00 in 279 W/m2
14:00 51.6 °F 37.3 °F 29.97 in West 4.0 mph 4.0 mph 58 % 0.00 in 262 W/m2
14:10 51.4 °F 37.5 °F 29.97 in WNW 2.0 mph 15.0 mph 59 % 0.00 in 294 W/m2
14:15 51.4 °F 37.5 °F 29.97 in WSW 2.0 mph 15.0 mph 59 % 0.00 in 246 W/m2
14:20 51.4 °F 38.0 °F 29.96 in SSW 3.0 mph 3.0 mph 60 % 0.00 in 459 W/m2
14:25 51.4 °F 37.1 °F 29.96 in South 4.0 mph 5.0 mph 58 % 0.00 in 311 W/m2
14:35 51.3 °F 37.0 °F 29.95 in SSW 4.0 mph 15.0 mph 58 % 0.00 in 232 W/m2
14:40 51.5 °F 37.2 °F 29.95 in SSW 3.0 mph 15.0 mph 58 % 0.00 in 406 W/m2
14:45 51.3 °F 36.6 °F 29.95 in South 4.0 mph 15.0 mph 57 % 0.00 in 171 W/m2
14:50 50.9 °F 37.1 °F 29.95 in SW 5.0 mph 15.0 mph 59 % 0.00 in 179 W/m2
14:55 50.5 °F 36.7 °F 29.95 in SW 5.0 mph 15.0 mph 59 % 0.00 in 192 W/m2
15:00 50.2 °F 36.0 °F 29.94 in SSW 6.0 mph 6.0 mph 58 % 0.00 in 225 W/m2
15:10 50.3 °F 34.3 °F 29.94 in SW 5.0 mph 5.0 mph 54 % 0.00 in 192 W/m2
15:15 50.3 °F 34.3 °F 29.94 in WSW 5.0 mph 15.0 mph 54 % 0.00 in 216 W/m2
15:20 50.4 °F 34.8 °F 29.94 in WSW 3.0 mph 3.0 mph 55 % 0.00 in 172 W/m2
15:25 50.4 °F 34.8 °F 29.94 in SW 3.0 mph 5.0 mph 55 % 0.00 in 149 W/m2
15:35 49.9 °F 35.7 °F 29.94 in SW 6.0 mph 15.0 mph 58 % 0.00 in 255 W/m2
15:40 50.0 °F 35.8 °F 29.94 in SSW 5.0 mph 5.0 mph 58 % 0.00 in 295 W/m2
15:50 49.8 °F 36.0 °F 29.93 in SW 4.0 mph 4.0 mph 59 % 0.00 in 83 W/m2
15:55 49.6 °F 36.3 °F 29.94 in SW 3.0 mph 15.0 mph 60 % 0.00 in 62 W/m2
16:00 49.4 °F 36.5 °F 29.94 in SW 3.0 mph 15.0 mph 61 % 0.00 in 118 W/m2
16:05 49.3 °F 36.8 °F 29.94 in SW 2.0 mph 15.0 mph 62 % 0.00 in 107 W/m2
16:15 49.2 °F 37.1 °F 29.94 in SW 3.0 mph 15.0 mph 63 % 0.00 in 104 W/m2
16:20 49.3 °F 37.6 °F 29.94 in SSW 3.0 mph 3.0 mph 64 % 0.00 in 107 W/m2
16:25 49.2 °F 36.3 °F 29.94 in SSW 4.0 mph 5.0 mph 61 % 0.00 in 83 W/m2
16:30 49.1 °F 36.2 °F 29.94 in West 4.0 mph 4.0 mph 61 % 0.00 in 70 W/m2
16:35 49.1 °F 36.6 °F 29.95 in SSW 4.0 mph 6.0 mph 62 % 0.00 in 54 W/m2
16:40 48.9 °F 36.0 °F 29.95 in SW 5.0 mph 15.0 mph 61 % 0.00 in 40 W/m2
16:50 48.7 °F 37.1 °F 29.94 in SSW 3.0 mph 15.0 mph 64 % 0.00 in 69 W/m2
16:55 48.6 °F 37.0 °F 29.94 in SW 4.0 mph 15.0 mph 64 % 0.00 in 56 W/m2
17:00 48.4 °F 36.8 °F 29.94 in South 5.0 mph 15.0 mph 64 % 0.00 in 35 W/m2
17:10 48.1 °F 36.1 °F 29.94 in SW 5.0 mph 15.0 mph 63 % 0.00 in 39 W/m2
17:15 48.0 °F 36.0 °F 29.93 in SSW 6.0 mph 15.0 mph 63 % 0.00 in 40 W/m2
17:25 47.8 °F 36.2 °F 29.94 in SSW 6.0 mph 15.0 mph 64 % 0.00 in 19 W/m2
17:30 47.7 °F 36.1 °F 29.95 in SW 6.0 mph 15.0 mph 64 % 0.00 in 14 W/m2
17:35 47.5 °F 35.9 °F 29.95 in South 6.0 mph 15.0 mph 64 % 0.00 in 11 W/m2
17:40 47.5 °F 36.3 °F 29.95 in SW 6.0 mph 6.0 mph 65 % 0.00 in 9 W/m2
17:45 47.4 °F 36.2 °F 29.95 in SW 5.0 mph 15.0 mph 65 % 0.00 in 9 W/m2
17:55 47.3 °F 36.1 °F 29.94 in SSW 3.0 mph 15.0 mph 65 % 0.00 in 0 W/m2
18:00 47.3 °F 36.1 °F 29.94 in SSW 3.0 mph 3.0 mph 65 % 0.00 in 0 W/m2
18:05 47.2 °F 36.0 °F 29.93 in SSW 2.0 mph 15.0 mph 65 % 0.00 in 0 W/m2
18:10 47.2 °F 36.0 °F 29.94 in SSW 2.0 mph 2.0 mph 65 % 0.00 in 0 W/m2
18:15 47.1 °F 35.9 °F 29.94 in South 2.0 mph 6.0 mph 65 % 0.00 in 0 W/m2
18:20 47.1 °F 35.9 °F 29.93 in South 2.0 mph 15.0 mph 65 % 0.00 in 0 W/m2
18:30 47.1 °F 35.9 °F 29.93 in SSW 4.0 mph 15.0 mph 65 % 0.00 in 0 W/m2
18:35 47.1 °F 35.9 °F 29.93 in South 4.0 mph 15.0 mph 65 % 0.00 in 0 W/m2
18:40 47.0 °F 36.2 °F 29.93 in SSW 4.0 mph 15.0 mph 66 % 0.00 in 0 W/m2
18:50 47.0 °F 36.2 °F 29.92 in South 5.0 mph 15.0 mph 66 % 0.00 in 0 W/m2
18:55 47.0 °F 36.2 °F 29.92 in SSW 5.0 mph 15.0 mph 66 % 0.00 in 0 W/m2
19:05 46.9 °F 36.1 °F 29.92 in South 5.0 mph 15.0 mph 66 % 0.00 in 0 W/m2
19:10 46.9 °F 36.1 °F 29.92 in SSW 6.0 mph 6.0 mph 66 % 0.00 in 0 W/m2
19:15 46.9 °F 36.5 °F 29.92 in SSW 4.0 mph 15.0 mph 67 % 0.00 in 0 W/m2
19:20 46.9 °F 36.5 °F 29.91 in SSE 4.0 mph 4.0 mph 67 % 0.00 in 0 W/m2
19:25 46.8 °F 36.4 °F 29.91 in SSW 5.0 mph 7.0 mph 67 % 0.00 in 0 W/m2
19:35 46.8 °F 36.4 °F 29.90 in SSE 6.0 mph 7.0 mph 67 % 0.00 in 0 W/m2
19:40 46.8 °F 36.4 °F 29.91 in South 5.0 mph 5.0 mph 67 % 0.00 in 0 W/m2
19:45 46.8 °F 36.4 °F 29.91 in SSW 5.0 mph 15.0 mph 67 % 0.00 in 0 W/m2
19:50 46.7 °F 35.9 °F 29.91 in SSW 5.0 mph 5.0 mph 66 % 0.00 in 0 W/m2
19:55 46.7 °F 35.9 °F 29.91 in SSW 6.0 mph 10.0 mph 66 % 0.00 in 0 W/m2
20:00 46.8 °F 35.3 °F 29.91 in SW 8.0 mph 8.0 mph 64 % 0.00 in 0 W/m2
20:10 46.8 °F 35.3 °F 29.91 in South 8.0 mph 15.0 mph 64 % 0.00 in 0 W/m2
20:20 46.8 °F 35.6 °F 29.91 in SW 6.0 mph 15.0 mph 65 % 0.00 in 0 W/m2
20:25 46.8 °F 35.3 °F 29.91 in SSW 7.0 mph 15.0 mph 64 % 0.00 in 0 W/m2
20:30 46.8 °F 35.3 °F 29.91 in South 7.0 mph 7.0 mph 64 % 0.00 in 0 W/m2
20:35 46.8 °F 35.6 °F 29.90 in South 6.0 mph 12.0 mph 65 % 0.00 in 0 W/m2
20:45 46.7 °F 35.9 °F 29.88 in SSE 7.0 mph 15.0 mph 66 % 0.00 in 0 W/m2
20:50 46.6 °F 35.8 °F 29.88 in South 6.0 mph 6.0 mph 66 % 0.00 in 0 W/m2
20:55 46.5 °F 35.7 °F 29.88 in SSW 6.0 mph 8.0 mph 66 % 0.00 in 0 W/m2
21:00 46.5 °F 36.1 °F 29.88 in SSW 6.0 mph 6.0 mph 67 % 0.00 in 0 W/m2
21:05 46.4 °F 36.0 °F 29.87 in South 6.0 mph 9.0 mph 67 % 0.00 in 0 W/m2
21:15 46.3 °F 35.9 °F 29.87 in SSE 8.0 mph 8.0 mph 67 % 0.00 in 0 W/m2
21:20 46.3 °F 36.3 °F 29.86 in South 7.0 mph 15.0 mph 68 % 0.00 in 0 W/m2
21:25 46.2 °F 36.6 °F 29.86 in SSW 8.0 mph 16.0 mph 69 % 0.00 in 0 W/m2
21:30 46.2 °F 37.0 °F 29.86 in SSW 10.0 mph 15.0 mph 70 % 0.00 in 0 W/m2
21:35 46.2 °F 37.0 °F 29.85 in SSW 12.0 mph 15.0 mph 70 % 0.00 in 0 W/m2
21:45 46.2 °F 37.7 °F 29.85 in SSW 12.0 mph 15.0 mph 72 % 0.00 in 0 W/m2
21:55 46.2 °F 38.4 °F 29.84 in South 12.0 mph 15.0 mph 74 % 0.00 in 0 W/m2
22:00 46.2 °F 38.7 °F 29.84 in South 14.0 mph 18.0 mph 75 % 0.00 in 0 W/m2
22:05 46.1 °F 39.0 °F 29.84 in SSE 13.0 mph 18.0 mph 76 % 0.00 in 0 W/m2
22:10 46.1 °F 39.0 °F 29.84 in SSW 11.0 mph 11.0 mph 76 % 0.00 in 0 W/m2
22:15 46.1 °F 39.0 °F 29.84 in SSE 10.0 mph 15.0 mph 76 % 0.00 in 0 W/m2
22:25 46.0 °F 39.2 °F 29.84 in SSE 9.0 mph 15.0 mph 77 % 0.00 in 0 W/m2
22:30 46.0 °F 39.2 °F 29.83 in SSE 8.0 mph 15.0 mph 77 % 0.00 in 0 W/m2
22:35 46.0 °F 39.2 °F 29.83 in SSE 7.0 mph 15.0 mph 77 % 0.00 in 0 W/m2
22:40 46.0 °F 39.5 °F 29.83 in SSW 6.0 mph 6.0 mph 78 % 0.00 in 0 W/m2
22:45 46.0 °F 39.9 °F 29.82 in South 4.0 mph 15.0 mph 79 % 0.00 in 0 W/m2
22:55 45.8 °F 40.3 °F 29.81 in South 6.0 mph 8.0 mph 81 % 0.00 in 0 W/m2
23:00 45.7 °F 40.5 °F 29.81 in SSW 7.0 mph 15.0 mph 82 % 0.00 in 0 W/m2
23:05 45.7 °F 40.5 °F 29.81 in SW 9.0 mph 15.0 mph 82 % 0.00 in 0 W/m2
23:15 45.6 °F 40.7 °F 29.81 in South 9.0 mph 15.0 mph 83 % 0.00 in 0 W/m2
23:20 45.6 °F 41.0 °F 29.81 in South 8.0 mph 8.0 mph 84 % 0.00 in 0 W/m2
23:30 45.4 °F 41.2 °F 29.79 in South 8.0 mph 15.0 mph 85 % 0.00 in 0 W/m2
23:35 45.3 °F 41.4 °F 29.79 in SSE 9.0 mph 15.0 mph 86 % 0.00 in 0 W/m2
23:40 45.2 °F 41.9 °F 29.79 in South 9.0 mph 9.0 mph 88 % 0.00 in 0 W/m2
23:45 45.1 °F 41.8 °F 29.79 in South 9.0 mph 11.0 mph 88 % 0.00 in 0 W/m2
23:50 45.1 °F 42.1 °F 29.78 in SSW 10.0 mph 10.0 mph 89 % 0.00 in 0 W/m2
23:55 45.1 °F 42.1 °F 29.77 in South 11.0 mph 11.0 mph 89 % 0.00 in 0 W/m2
Delerius-Weather
Compliments of Weather Underground - 2 mb

Data updates at regular intervals.